Time;durP1;ratioP1;P1;durP2;ratioP2;P2;SDS_P1;SDS_P2;PMS_P1;PMS_P2;Temp;Humidity;BMP_temperature;BMP_pressure;BME280_temperature;BME280_humidity;BME280_pressure;Samples;Min_cycle;Max_cycle;Signal;HPM_P1;HPM_P2
2021/10/14 00:02:09;;;;;;;41.42;23.88;;;9.70;88.00;;;;;;5037651;28;20038;-37
2021/10/14 00:04:35;;;;;;;33.42;22.20;;;9.70;88.10;;;;;;5037782;28;20260;-37
2021/10/14 00:07:00;;;;;;;40.20;23.08;;;9.70;88.00;;;;;;5037626;28;20037;-37
2021/10/14 00:09:26;;;;;;;37.00;23.95;;;9.70;88.00;;;;;;5037360;28;20108;-37
2021/10/14 00:11:51;;;;;;;36.28;23.92;;;9.70;88.00;;;;;;5037421;28;20061;-39
2021/10/14 00:14:17;;;;;;;38.60;22.60;;;9.70;88.00;;;;;;5037108;28;20048;-35
2021/10/14 00:16:43;;;;;;;38.70;23.63;;;9.70;88.00;;;;;;5037159;28;20029;-38
2021/10/14 00:19:08;;;;;;;36.85;22.80;;;9.70;88.10;;;;;;5037423;28;20018;-39
2021/10/14 00:21:34;;;;;;;36.40;22.60;;;9.70;88.10;;;;;;5037270;28;20026;-36
2021/10/14 00:23:59;;;;;;;40.58;22.25;;;9.70;88.10;;;;;;5037227;28;20087;-37
2021/10/14 00:26:25;;;;;;;39.85;22.95;;;9.70;88.10;;;;;;5037047;28;20060;-38
2021/10/14 00:28:51;;;;;;;34.10;21.33;;;9.70;88.20;;;;;;5037664;28;20036;-35
2021/10/14 00:31:16;;;;;;;36.80;21.27;;;9.70;88.20;;;;;;5036798;28;20322;-34
2021/10/14 00:33:42;;;;;;;31.63;20.58;;;9.70;88.20;;;;;;5037367;28;20116;-39
2021/10/14 00:36:08;;;;;;;31.90;20.45;;;9.70;88.20;;;;;;5036447;28;20028;-39
2021/10/14 00:38:33;;;;;;;34.28;22.20;;;9.70;88.20;;;;;;5037365;28;20026;-37
2021/10/14 00:40:59;;;;;;;29.80;19.35;;;9.80;88.30;;;;;;5037072;28;20091;-36
2021/10/14 00:43:25;;;;;;;35.50;20.42;;;9.70;88.10;;;;;;5036893;28;20046;-39
2021/10/14 00:45:50;;;;;;;34.92;21.35;;;9.70;88.00;;;;;;5036822;28;20068;-39
2021/10/14 00:48:16;;;;;;;35.15;21.45;;;9.80;88.10;;;;;;5036791;28;20039;-38
2021/10/14 00:50:42;;;;;;;37.25;22.90;;;9.80;88.10;;;;;;5036584;28;20033;-36
2021/10/14 00:53:08;;;;;;;32.35;21.50;;;9.70;87.80;;;;;;5036763;28;20065;-36
2021/10/14 00:55:35;;;;;;;33.85;20.90;;;9.80;88.00;;;;;;5036498;28;20038;-36
2021/10/14 00:58:01;;;;;;;33.05;22.58;;;9.70;88.00;;;;;;5036428;28;20053;-39
2021/10/14 01:00:27;;;;;;;33.20;21.58;;;9.80;88.10;;;;;;5036786;28;20045;-39
2021/10/14 01:02:52;;;;;;;32.75;20.77;;;9.70;88.10;;;;;;5036169;28;20164;-36
2021/10/14 01:05:18;;;;;;;33.15;20.00;;;9.80;88.10;;;;;;5036279;28;20025;-38
2021/10/14 01:07:44;;;;;;;31.35;20.77;;;9.80;88.00;;;;;;5036483;28;20042;-36
2021/10/14 01:10:10;;;;;;;32.50;21.08;;;9.80;88.00;;;;;;5036335;28;20029;-38
2021/10/14 01:12:38;;;;;;;35.15;20.92;;;9.80;88.10;;;;;;5036380;28;20060;-39
2021/10/14 01:15:20;;;;;;;33.78;22.25;;;9.80;87.90;;;;;;5036339;28;20108;-34
2021/10/14 01:17:45;;;;;;;36.08;23.25;;;9.80;87.70;;;;;;5036253;28;20056;-34
2021/10/14 01:20:11;;;;;;;38.88;23.52;;;9.80;87.80;;;;;;5036146;28;20063;-34
2021/10/14 01:22:37;;;;;;;32.63;22.17;;;9.80;87.70;;;;;;5036338;28;20368;-37
2021/10/14 01:25:04;;;;;;;39.72;23.95;;;9.80;87.70;;;;;;5036037;28;20034;-35
2021/10/14 01:27:29;;;;;;;40.95;24.83;;;9.80;87.60;;;;;;5035956;28;20025;-37
2021/10/14 01:29:55;;;;;;;41.58;24.55;;;9.80;87.60;;;;;;5035808;28;20029;-37
2021/10/14 01:32:20;;;;;;;37.75;23.80;;;9.80;87.70;;;;;;5035903;28;20033;-35
2021/10/14 01:34:46;;;;;;;43.45;23.23;;;9.70;87.80;;;;;;5035659;28;20029;-35
2021/10/14 01:37:12;;;;;;;39.50;23.13;;;9.80;88.50;;;;;;5036217;28;20083;-35
2021/10/14 01:39:37;;;;;;;42.08;24.40;;;9.70;87.80;;;;;;5035855;28;20033;-35
2021/10/14 01:42:03;;;;;;;41.40;24.63;;;9.70;88.10;;;;;;5035572;28;20036;-37
2021/10/14 01:44:29;;;;;;;44.00;24.30;;;9.70;88.10;;;;;;5035773;28;20033;-35
2021/10/14 01:46:54;;;;;;;40.85;25.08;;;9.70;88.20;;;;;;5035895;28;20321;-35
2021/10/14 01:49:20;;;;;;;37.75;22.50;;;9.80;88.30;;;;;;5035420;28;20048;-35
2021/10/14 01:51:46;;;;;;;38.72;23.25;;;9.80;88.30;;;;;;5035750;28;20032;-35
2021/10/14 01:54:11;;;;;;;44.33;26.02;;;9.80;88.20;;;;;;5035153;28;20388;-35
2021/10/14 01:56:37;;;;;;;41.95;24.02;;;9.80;88.10;;;;;;5035129;28;20045;-35
2021/10/14 01:59:03;;;;;;;40.70;23.00;;;9.80;88.10;;;;;;5035613;28;20434;-35
2021/10/14 02:01:28;;;;;;;42.30;25.38;;;9.80;87.90;;;;;;5035327;28;20109;-38
2021/10/14 02:03:54;;;;;;;42.50;25.75;;;9.80;87.60;;;;;;5036054;28;20028;-36
2021/10/14 02:06:20;;;;;;;40.92;24.30;;;9.80;87.70;;;;;;5035407;28;20063;-38
2021/10/14 02:08:45;;;;;;;46.72;26.52;;;9.80;87.70;;;;;;5036116;28;20113;-38
2021/10/14 02:11:11;;;;;;;48.53;26.58;;;9.80;87.70;;;;;;5035127;28;20026;-35
2021/10/14 02:13:36;;;;;;;43.17;24.60;;;9.80;87.50;;;;;;5035327;28;20037;-35
2021/10/14 02:16:02;;;;;;;44.33;25.63;;;9.80;87.50;;;;;;5034937;28;20418;-36
2021/10/14 02:18:28;;;;;;;39.80;23.92;;;9.80;87.60;;;;;;5035263;28;20025;-35
2021/10/14 02:20:54;;;;;;;39.75;24.67;;;9.80;87.80;;;;;;5035425;28;20421;-37
2021/10/14 02:23:19;;;;;;;38.95;23.83;;;9.80;88.20;;;;;;5035524;28;20037;-37
2021/10/14 02:25:45;;;;;;;46.60;26.23;;;9.80;87.60;;;;;;5035231;28;20033;-36
2021/10/14 02:28:10;;;;;;;39.00;24.85;;;9.80;87.40;;;;;;5035277;28;20083;-37
2021/10/14 02:30:36;;;;;;;43.90;26.30;;;9.80;87.40;;;;;;5035138;28;20029;-35
2021/10/14 02:33:02;;;;;;;44.05;25.30;;;9.80;87.30;;;;;;5035268;28;20029;-35
2021/10/14 02:35:28;;;;;;;46.55;26.25;;;9.80;87.30;;;;;;5035370;28;20037;-38
2021/10/14 02:37:53;;;;;;;48.42;25.40;;;9.80;87.20;;;;;;5035217;28;20025;-36
2021/10/14 02:40:19;;;;;;;45.50;25.67;;;9.80;87.20;;;;;;5035027;28;20076;-38
2021/10/14 02:42:45;;;;;;;46.25;26.60;;;9.80;87.40;;;;;;5035011;28;20115;-37
2021/10/14 02:45:10;;;;;;;41.08;25.15;;;9.80;87.20;;;;;;5035315;28;20029;-36
2021/10/14 02:47:36;;;;;;;42.05;25.70;;;9.80;87.20;;;;;;5035270;28;20417;-38
2021/10/14 02:50:02;;;;;;;47.17;25.85;;;9.80;87.00;;;;;;5035154;28;20311;-38
2021/10/14 02:52:28;;;;;;;43.95;25.63;;;9.80;86.90;;;;;;5035130;28;20313;-37
2021/10/14 02:54:54;;;;;;;46.22;27.00;;;9.80;86.90;;;;;;5034874;28;20117;-39
2021/10/14 02:57:19;;;;;;;45.58;25.67;;;9.80;87.10;;;;;;5034777;28;20049;-37
2021/10/14 02:59:45;;;;;;;47.67;27.15;;;9.80;86.80;;;;;;5035045;28;20079;-39
2021/10/14 03:02:11;;;;;;;48.10;27.73;;;9.80;86.80;;;;;;5033673;28;20128;-36
2021/10/14 03:04:36;;;;;;;45.38;27.42;;;9.80;86.80;;;;;;5034856;28;20029;-37
2021/10/14 03:07:02;;;;;;;45.00;28.08;;;9.80;86.80;;;;;;5035745;28;20033;-35
2021/10/14 03:09:28;;;;;;;43.33;25.50;;;9.80;86.90;;;;;;5038628;28;20325;-35
2021/10/14 03:11:53;;;;;;;49.10;28.45;;;9.80;86.90;;;;;;5038400;28;20314;-35
2021/10/14 03:14:19;;;;;;;49.42;28.92;;;9.80;86.80;;;;;;5038207;28;20026;-38
2021/10/14 03:16:44;;;;;;;51.38;28.58;;;9.70;86.70;;;;;;5038724;28;20057;-37
2021/10/14 03:19:10;;;;;;;47.25;26.75;;;9.80;86.60;;;;;;5038639;28;20428;-39
2021/10/14 03:21:35;;;;;;;51.25;28.50;;;9.70;86.50;;;;;;5038395;28;20083;-38
2021/10/14 03:24:01;;;;;;;46.85;27.42;;;9.70;86.50;;;;;;5038398;28;20108;-38
2021/10/14 03:26:27;;;;;;;50.13;28.75;;;9.70;86.40;;;;;;5038011;28;20413;-39
2021/10/14 03:28:53;;;;;;;46.95;26.50;;;9.70;86.50;;;;;;5038857;28;20394;-38
2021/10/14 03:31:19;;;;;;;45.78;27.85;;;9.70;86.50;;;;;;5037617;28;20040;-38
2021/10/14 03:33:45;;;;;;;49.42;27.85;;;9.70;86.50;;;;;;5038101;28;20029;-36
2021/10/14 03:36:10;;;;;;;45.42;25.88;;;9.70;86.40;;;;;;5037747;28;20026;-36
2021/10/14 03:38:37;;;;;;;45.67;26.52;;;9.70;86.30;;;;;;5038542;28;20029;-39
2021/10/14 03:41:02;;;;;;;50.67;28.10;;;9.70;86.30;;;;;;5038374;28;20164;-39
2021/10/14 03:43:28;;;;;;;50.10;26.88;;;9.70;86.40;;;;;;5038198;28;20060;-38
2021/10/14 03:45:54;;;;;;;44.92;26.50;;;9.70;86.50;;;;;;5037823;28;20065;-37
2021/10/14 03:48:19;;;;;;;45.00;25.30;;;9.70;86.30;;;;;;5038119;28;20120;-36
2021/10/14 03:50:46;;;;;;;50.65;26.38;;;9.70;86.20;;;;;;5037815;28;20041;-38
2021/10/14 03:53:12;;;;;;;45.58;26.17;;;9.70;86.20;;;;;;5037751;28;20095;-36
2021/10/14 03:55:38;;;;;;;42.25;24.25;;;9.70;86.20;;;;;;5037897;28;20381;-36
2021/10/14 03:58:04;;;;;;;44.60;24.67;;;9.60;85.80;;;;;;5037617;28;20088;-35
2021/10/14 04:00:29;;;;;;;35.88;23.17;;;9.60;85.90;;;;;;5037543;28;20037;-35
2021/10/14 04:02:55;;;;;;;35.08;21.52;;;9.60;85.50;;;;;;5037735;28;20065;-35
2021/10/14 04:05:21;;;;;;;41.92;24.10;;;9.60;85.40;;;;;;5038048;28;20398;-39
2021/10/14 04:07:46;;;;;;;38.95;22.90;;;9.60;85.50;;;;;;5037812;28;20053;-38
2021/10/14 04:10:14;;;;;;;42.20;23.48;;;9.60;85.60;;;;;;5037236;28;20029;-37
2021/10/14 04:12:40;;;;;;;41.05;22.88;;;9.60;85.60;;;;;;5037710;28;20321;-36
2021/10/14 04:15:06;;;;;;;38.40;22.77;;;9.50;85.40;;;;;;5037271;28;20037;-35
2021/10/14 04:17:31;;;;;;;58.25;32.90;;;9.50;85.60;;;;;;5036967;28;20406;-38
2021/10/14 04:19:57;;;;;;;39.40;22.25;;;9.50;85.60;;;;;;5037109;28;20136;-36
2021/10/14 04:22:23;;;;;;;37.10;20.83;;;9.50;85.60;;;;;;5037031;28;20425;-35
2021/10/14 04:24:48;;;;;;;35.13;20.17;;;9.50;85.60;;;;;;5037072;28;20440;-36
2021/10/14 04:27:15;;;;;;;31.90;18.90;;;9.50;85.50;;;;;;5037097;28;20067;-38
2021/10/14 04:29:40;;;;;;;37.40;21.50;;;9.50;85.60;;;;;;5037154;28;20056;-36
2021/10/14 04:32:10;;;;;;;35.25;19.13;;;9.40;85.80;;;;;;5036890;28;20026;-36
2021/10/14 04:34:36;;;;;;;35.17;19.50;;;9.50;85.60;;;;;;5037071;28;20104;-36
2021/10/14 04:37:05;;;;;;;32.92;18.80;;;9.40;85.60;;;;;;5037102;28;20033;-36
2021/10/14 04:39:31;;;;;;;34.50;18.98;;;9.40;85.40;;;;;;5035757;28;20029;-38
2021/10/14 04:41:56;;;;;;;36.00;20.13;;;9.40;85.40;;;;;;5036915;28;20029;-39
2021/10/14 04:44:22;;;;;;;36.55;19.35;;;9.40;85.40;;;;;;5036398;28;20116;-39
2021/10/14 04:46:48;;;;;;;35.08;18.60;;;9.40;85.40;;;;;;5036293;28;20032;-39
2021/10/14 04:49:13;;;;;;;36.40;20.20;;;9.40;85.40;;;;;;5036320;28;20351;-38
2021/10/14 04:51:39;;;;;;;37.45;18.95;;;9.40;85.60;;;;;;5036659;28;20032;-36
2021/10/14 04:54:05;;;;;;;29.80;17.75;;;9.40;85.60;;;;;;5036362;28;20362;-36
2021/10/14 04:56:30;;;;;;;29.02;16.52;;;9.40;85.30;;;;;;5036133;28;20061;-41
2021/10/14 04:58:56;;;;;;;30.10;18.73;;;9.40;85.30;;;;;;5036649;28;20076;-37
2021/10/14 05:01:22;;;;;;;32.88;17.58;;;9.40;85.20;;;;;;5035914;28;20037;-38
2021/10/14 05:03:48;;;;;;;28.70;17.05;;;9.40;85.20;;;;;;5036809;28;20108;-38
2021/10/14 05:06:13;;;;;;;28.77;16.58;;;9.40;85.00;;;;;;5035860;28;20124;-38
2021/10/14 05:08:39;;;;;;;24.45;15.50;;;9.40;84.70;;;;;;5036892;28;20033;-38
2021/10/14 05:11:12;;;;;;;25.33;15.18;;;9.40;84.60;;;;;;5035981;28;20306;-34
2021/10/14 05:13:39;;;;;;;27.70;15.73;;;9.40;84.60;;;;;;5036571;28;20030;-37
2021/10/14 05:16:05;;;;;;;28.45;15.18;;;9.40;84.30;;;;;;5035930;28;20055;-36
2021/10/14 05:18:31;;;;;;;29.45;16.00;;;9.40;84.40;;;;;;5038673;28;20084;-35
2021/10/14 05:20:57;;;;;;;27.90;15.95;;;9.40;84.40;;;;;;5048775;28;20026;-35
2021/10/14 05:23:22;;;;;;;26.52;15.35;;;9.40;84.30;;;;;;5043754;28;20080;-38
2021/10/14 05:25:48;;;;;;;29.38;15.77;;;9.30;84.00;;;;;;5035937;28;20025;-38
2021/10/14 05:28:15;;;;;;;26.00;15.43;;;9.30;84.00;;;;;;5035890;28;20099;-36
2021/10/14 05:30:41;;;;;;;33.15;16.40;;;9.30;84.20;;;;;;5035284;28;20029;-35
2021/10/14 05:33:06;;;;;;;31.35;16.00;;;9.30;84.30;;;;;;5036038;28;20306;-35
2021/10/14 05:35:32;;;;;;;29.17;15.57;;;9.40;84.60;;;;;;5036050;28;20236;-38
2021/10/14 05:37:58;;;;;;;33.97;16.90;;;9.40;84.50;;;;;;5035762;28;20416;-35
2021/10/14 05:40:24;;;;;;;25.35;15.35;;;9.40;84.80;;;;;;5035957;28;20160;-37
2021/10/14 05:42:49;;;;;;;30.25;15.93;;;9.40;84.60;;;;;;5035956;28;20033;-37
2021/10/14 05:45:15;;;;;;;30.02;15.73;;;9.40;84.50;;;;;;5035505;28;20031;-34
2021/10/14 05:47:40;;;;;;;24.98;15.02;;;9.40;84.30;;;;;;5035794;28;20099;-35
2021/10/14 05:50:07;;;;;;;22.52;13.70;;;9.50;84.20;;;;;;5035399;28;20025;-37
2021/10/14 05:52:32;;;;;;;28.38;15.25;;;9.50;84.00;;;;;;5035732;28;20065;-38
2021/10/14 05:54:59;;;;;;;24.73;14.68;;;9.50;83.70;;;;;;5035506;28;20075;-38
2021/10/14 05:57:25;;;;;;;27.67;14.52;;;9.50;83.60;;;;;;5035115;28;20046;-35
2021/10/14 05:59:51;;;;;;;35.53;16.98;;;9.50;83.50;;;;;;5035294;28;20033;-37
2021/10/14 06:02:16;;;;;;;22.75;14.40;;;9.50;83.60;;;;;;5035461;28;20103;-35
2021/10/14 06:04:43;;;;;;;25.02;14.68;;;9.50;83.60;;;;;;5035160;28;20060;-34
2021/10/14 06:07:08;;;;;;;27.27;14.65;;;9.50;83.20;;;;;;5035264;28;20069;-35
2021/10/14 06:09:34;;;;;;;26.20;14.20;;;9.50;83.50;;;;;;5035455;28;20159;-38
2021/10/14 06:11:59;;;;;;;26.35;14.18;;;9.50;83.60;;;;;;5035415;28;20363;-37
2021/10/14 06:14:25;;;;;;;21.85;13.98;;;9.60;83.30;;;;;;5035114;28;20116;-36
2021/10/14 06:16:51;;;;;;;26.40;14.23;;;9.60;83.20;;;;;;5035414;28;20029;-38
2021/10/14 06:19:16;;;;;;;23.83;14.68;;;9.60;82.80;;;;;;5035001;28;20080;-38
2021/10/14 06:21:42;;;;;;;27.65;13.82;;;9.60;83.20;;;;;;5035073;28;20389;-38
2021/10/14 06:24:08;;;;;;;23.85;14.77;;;9.70;82.80;;;;;;5046113;28;20033;-35
2021/10/14 06:26:33;;;;;;;23.40;14.32;;;9.70;82.40;;;;;;5034987;28;20056;-38
2021/10/14 06:28:59;;;;;;;24.83;14.32;;;9.70;82.10;;;;;;5034149;28;20033;-38
2021/10/14 06:31:24;;;;;;;25.52;14.63;;;9.70;81.90;;;;;;5034600;28;20049;-38
2021/10/14 06:33:50;;;;;;;22.13;13.88;;;9.60;81.80;;;;;;5035497;28;20090;-36
2021/10/14 06:36:16;;;;;;;24.08;14.68;;;9.60;81.90;;;;;;5034520;28;20540;-34
2021/10/14 06:38:42;;;;;;;22.40;13.77;;;9.60;81.50;;;;;;5035626;28;20037;-37
2021/10/14 06:41:07;;;;;;;23.33;14.40;;;9.60;81.50;;;;;;5035649;28;20026;-35
2021/10/14 06:43:33;;;;;;;26.90;15.15;;;9.60;81.60;;;;;;5039282;28;20038;-36
2021/10/14 06:45:58;;;;;;;21.20;13.23;;;9.60;81.70;;;;;;5038566;28;20025;-35
2021/10/14 06:48:24;;;;;;;23.45;14.07;;;9.60;81.50;;;;;;5038952;28;20033;-38
2021/10/14 06:50:50;;;;;;;25.50;14.80;;;9.60;81.70;;;;;;5038473;28;20409;-40
2021/10/14 06:53:15;;;;;;;19.85;12.90;;;9.70;81.80;;;;;;5039012;28;20039;-37
2021/10/14 06:55:41;;;;;;;23.05;13.65;;;9.70;81.50;;;;;;5038323;28;20357;-35
2021/10/14 06:58:07;;;;;;;20.95;13.32;;;9.70;81.20;;;;;;5038487;28;20033;-35
2021/10/14 07:00:33;;;;;;;23.25;14.77;;;9.80;81.20;;;;;;5038788;28;20037;-36
2021/10/14 07:02:58;;;;;;;23.25;12.88;;;9.80;80.90;;;;;;5038813;28;20426;-36
2021/10/14 07:05:24;;;;;;;21.08;12.88;;;9.90;80.60;;;;;;5038377;28;20034;-39
2021/10/14 07:07:50;;;;;;;20.38;13.00;;;9.90;80.50;;;;;;5038220;28;20073;-39
2021/10/14 07:10:16;;;;;;;21.17;12.52;;;9.90;80.30;;;;;;5038212;28;20033;-39
2021/10/14 07:12:43;;;;;;;20.55;12.82;;;10.00;80.60;;;;;;5038380;28;20048;-36
2021/10/14 07:15:09;;;;;;;21.65;13.30;;;10.00;79.90;;;;;;5038347;28;20378;-36
2021/10/14 07:17:36;;;;;;;24.73;13.98;;;10.00;79.50;;;;;;5038687;28;20152;-36
2021/10/14 07:20:04;;;;;;;25.30;13.43;;;10.00;79.90;;;;;;5038576;28;20056;-36
2021/10/14 07:22:30;;;;;;;23.88;14.13;;;10.10;79.90;;;;;;5048258;28;20033;-39
2021/10/14 07:24:55;;;;;;;22.45;14.02;;;10.10;79.80;;;;;;5038143;28;20333;-40
2021/10/14 07:27:21;;;;;;;21.25;13.00;;;10.20;79.70;;;;;;5037975;28;20033;-39
2021/10/14 07:29:47;;;;;;;18.90;12.32;;;10.20;79.50;;;;;;5038106;28;20045;-39
2021/10/14 07:32:13;;;;;;;23.10;12.40;;;10.20;79.30;;;;;;5037906;28;20421;-38
2021/10/14 07:34:38;;;;;;;19.45;12.50;;;10.30;79.00;;;;;;5037543;28;20030;-35
2021/10/14 07:37:05;;;;;;;19.95;13.50;;;10.30;78.90;;;;;;5038072;28;20079;-35
2021/10/14 07:39:32;;;;;;;20.30;12.00;;;10.40;78.40;;;;;;5037930;28;20067;-35
2021/10/14 07:41:58;;;;;;;20.67;12.27;;;10.40;78.10;;;;;;5037670;28;20105;-34
2021/10/14 07:44:24;;;;;;;21.25;12.70;;;10.50;78.10;;;;;;5037745;28;20033;-38
2021/10/14 07:46:50;;;;;;;21.80;12.52;;;10.50;78.10;;;;;;5037656;28;20042;-37
2021/10/14 07:49:18;;;;;;;16.45;10.52;;;10.50;78.20;;;;;;5035915;28;20034;-38
2021/10/14 07:51:44;;;;;;;19.05;11.77;;;10.60;78.20;;;;;;5035945;28;20414;-39
2021/10/14 07:54:09;;;;;;;20.85;11.43;;;10.70;78.10;;;;;;5035188;28;20018;-38
2021/10/14 07:56:35;;;;;;;19.48;10.38;;;10.70;77.90;;;;;;5039501;28;20048;-36
2021/10/14 07:59:02;;;;;;;17.45;10.15;;;10.80;77.70;;;;;;5046558;28;20037;-39
2021/10/14 08:01:28;;;;;;;16.65;10.68;;;10.90;77.20;;;;;;5037293;28;20087;-39
2021/10/14 08:03:53;;;;;;;17.85;10.43;;;10.90;76.70;;;;;;5038147;28;20257;-36
2021/10/14 08:06:19;;;;;;;19.58;10.88;;;11.00;76.30;;;;;;5037086;28;20036;-35
2021/10/14 08:08:45;;;;;;;15.38;9.82;;;11.00;75.90;;;;;;5036626;28;20035;-39
2021/10/14 08:11:10;;;;;;;19.85;11.20;;;11.10;76.00;;;;;;5037041;28;20167;-36
2021/10/14 08:13:37;;;;;;;24.15;13.13;;;11.20;75.50;;;;;;5037420;28;20026;-40
2021/10/14 08:16:04;;;;;;;20.80;11.55;;;11.20;75.60;;;;;;5037321;28;20111;-39
2021/10/14 08:18:30;;;;;;;22.38;13.25;;;11.30;75.70;;;;;;5037309;28;20107;-39
2021/10/14 08:20:57;;;;;;;19.25;11.00;;;11.40;75.50;;;;;;5037033;28;20448;-39
2021/10/14 08:23:24;;;;;;;15.70;9.73;;;11.50;75.20;;;;;;5037160;28;20112;-36
2021/10/14 08:25:50;;;;;;;32.75;17.58;;;11.50;74.90;;;;;;5036773;28;20117;-35
2021/10/14 08:28:17;;;;;;;20.13;10.00;;;11.60;74.70;;;;;;5036496;28;20111;-36
2021/10/14 08:30:43;;;;;;;18.75;10.82;;;11.60;74.50;;;;;;5036733;28;20033;-36
2021/10/14 08:33:10;;;;;;;14.65;9.55;;;11.70;74.10;;;;;;5037102;28;20030;-39
2021/10/14 08:35:36;;;;;;;16.67;10.52;;;11.70;73.40;;;;;;5037020;28;20271;-37
2021/10/14 08:38:06;;;;;;;15.52;8.55;;;11.80;73.20;;;;;;5036881;28;20029;-36
2021/10/14 08:40:33;;;;;;;21.80;10.03;;;11.90;72.60;;;;;;5036950;28;20325;-38
2021/10/14 08:43:01;;;;;;;16.73;9.48;;;11.90;72.50;;;;;;5036874;28;20318;-39
2021/10/14 08:45:28;;;;;;;13.95;9.07;;;12.00;72.20;;;;;;5036333;28;20037;-36
2021/10/14 08:47:54;;;;;;;13.75;9.00;;;12.00;71.80;;;;;;5035611;28;20377;-39
2021/10/14 08:50:20;;;;;;;16.92;9.68;;;12.00;71.60;;;;;;5036259;28;20053;-39
2021/10/14 08:52:46;;;;;;;17.88;9.20;;;12.00;71.90;;;;;;5036562;28;20040;-39
2021/10/14 08:55:12;;;;;;;15.55;8.88;;;12.00;71.60;;;;;;5036105;28;20026;-38
2021/10/14 08:57:38;;;;;;;16.05;9.32;;;12.10;71.50;;;;;;5036084;28;20103;-37
2021/10/14 09:00:04;;;;;;;16.38;9.00;;;12.10;70.90;;;;;;5036367;28;20033;-35
2021/10/14 09:02:30;;;;;;;14.82;8.32;;;12.20;70.90;;;;;;5036245;28;20041;-37
2021/10/14 09:05:00;;;;;;;17.85;8.80;;;12.30;71.00;;;;;;5036353;28;20037;-38
2021/10/14 09:07:31;;;;;;;17.95;9.57;;;12.30;70.40;;;;;;5035845;28;20037;-39
2021/10/14 09:10:03;;;;;;;15.88;9.45;;;12.40;69.60;;;;;;5036335;28;20056;-36
2021/10/14 09:12:37;;;;;;;12.05;7.68;;;12.50;68.90;;;;;;5036255;28;20310;-39
2021/10/14 09:15:06;;;;;;;15.00;8.48;;;12.50;68.60;;;;;;5035760;28;20025;-39
2021/10/14 09:17:38;;;;;;;21.77;11.00;;;12.50;68.50;;;;;;5036228;28;20425;-39
2021/10/14 09:20:22;;;;;;;19.02;8.43;;;12.50;68.80;;;;;;5035642;28;20029;-39
2021/10/14 09:22:55;;;;;;;21.95;8.55;;;12.60;68.20;;;;;;5035961;28;20037;-39
2021/10/14 09:25:29;;;;;;;14.82;7.25;;;12.60;68.50;;;;;;5035923;28;20053;-39
2021/10/14 09:28:05;;;;;;;17.70;7.47;;;12.70;68.80;;;;;;5035608;28;20367;-36
2021/10/14 09:30:32;;;;;;;14.35;8.05;;;12.80;68.20;;;;;;5035894;28;20082;-39
2021/10/14 09:32:58;;;;;;;16.45;7.97;;;12.90;68.10;;;;;;5036043;28;20025;-39
2021/10/14 09:35:24;;;;;;;14.50;7.93;;;12.90;67.90;;;;;;5035333;28;20329;-37
2021/10/14 09:37:50;;;;;;;15.52;7.32;;;13.00;67.60;;;;;;5035127;28;20036;-35
2021/10/14 09:40:16;;;;;;;13.35;8.13;;;13.00;67.40;;;;;;5035317;28;20398;-36
2021/10/14 09:42:50;;;;;;;13.85;7.75;;;13.10;67.00;;;;;;5035587;28;20079;-34
2021/10/14 09:45:32;;;;;;;27.50;8.73;;;13.20;66.00;;;;;;5035709;28;20303;-45
2021/10/14 09:48:04;;;;;;;14.88;6.88;;;13.20;65.30;;;;;;5035671;28;20111;-36
2021/10/14 09:50:30;;;;;;;20.40;6.90;;;13.10;64.00;;;;;;5035625;28;20036;-36
2021/10/14 09:53:01;;;;;;;13.30;7.05;;;13.20;64.20;;;;;;5035551;28;20398;-36
2021/10/14 09:55:27;;;;;;;12.18;6.85;;;13.20;64.00;;;;;;5035322;28;20025;-39
2021/10/14 09:57:52;;;;;;;17.77;8.13;;;13.20;64.10;;;;;;5035482;28;20450;-36
2021/10/14 10:00:19;;;;;;;12.90;6.93;;;13.20;63.70;;;;;;5035470;28;20111;-39
2021/10/14 10:02:47;;;;;;;11.05;7.20;;;13.30;63.90;;;;;;5035293;28;20037;-36
2021/10/14 10:05:13;;;;;;;14.55;9.10;;;13.30;63.60;;;;;;5034004;28;20398;-39
2021/10/14 10:07:43;;;;;;;28.13;8.30;;;13.30;63.60;;;;;;5035330;28;20038;-40
2021/10/14 10:10:14;;;;;;;13.55;7.68;;;13.30;62.60;;;;;;5034822;28;20026;-38
2021/10/14 10:12:40;;;;;;;;;;;13.30;62.60;;;;;;5035598;28;20299;-37
2021/10/14 10:15:06;;;;;;;13.02;7.20;;;13.30;63.00;;;;;;5035359;28;19919;-37
2021/10/14 10:17:50;;;;;;;11.48;7.10;;;13.30;62.30;;;;;;5041482;28;20041;-38
2021/10/14 10:20:36;;;;;;;13.68;6.60;;;13.40;62.70;;;;;;5041076;28;20041;-39
2021/10/14 10:23:02;;;;;;;11.20;6.13;;;13.40;61.90;;;;;;5040642;28;20048;-39
2021/10/14 10:25:28;;;;;;;14.90;7.07;;;13.40;62.20;;;;;;5040786;28;20033;-36
2021/10/14 10:27:57;;;;;;;24.55;6.80;;;13.60;62.50;;;;;;5041399;28;20040;-36
2021/10/14 10:30:41;;;;;;;10.32;6.38;;;13.70;61.70;;;;;;5041653;28;20102;-39
2021/10/14 10:33:08;;;;;;;10.70;6.47;;;13.80;61.30;;;;;;5041922;28;20029;-38
2021/10/14 10:35:46;;;;;;;25.83;7.95;;;13.80;61.00;;;;;;5040616;28;20426;-39
2021/10/14 10:38:25;;;;;;;14.25;6.88;;;14.00;61.60;;;;;;5041168;28;20038;-39
2021/10/14 10:40:53;;;;;;;12.63;6.80;;;14.10;60.50;;;;;;5041735;28;20061;-38
2021/10/14 10:43:22;;;;;;;12.38;6.60;;;14.20;60.10;;;;;;5041517;28;20055;-39
2021/10/14 10:45:57;;;;;;;9.75;6.40;;;14.20;60.10;;;;;;5041569;28;20064;-38
2021/10/14 10:48:22;;;;;;;16.50;7.07;;;14.30;59.70;;;;;;5041394;28;20048;-36
2021/10/14 10:50:51;;;;;;;77.20;10.68;;;14.30;58.50;;;;;;5041178;28;20037;-36
2021/10/14 10:53:22;;;;;;;14.30;5.80;;;14.40;58.90;;;;;;5041332;28;20464;-34
2021/10/14 10:55:59;;;;;;;16.05;6.35;;;14.40;57.80;;;;;;5040855;28;20487;-36
2021/10/14 10:58:28;;;;;;;11.05;6.50;;;14.40;57.80;;;;;;5041678;28;20628;-40
2021/10/14 11:00:54;;;;;;;23.25;7.15;;;14.40;58.50;;;;;;5041110;28;20033;-39
2021/10/14 11:03:23;;;;;;;11.40;6.50;;;14.40;58.00;;;;;;5041481;28;20129;-39
2021/10/14 11:05:54;;;;;;;20.08;6.57;;;14.50;57.60;;;;;;5041566;28;20030;-39
2021/10/14 11:08:24;;;;;;;22.17;8.38;;;14.50;57.60;;;;;;5041487;28;20302;-37
2021/10/14 11:10:55;;;;;;;13.18;7.03;;;14.50;57.70;;;;;;5041333;28;20037;-39
2021/10/14 11:13:21;;;;;;;;;;;14.50;56.90;;;;;;5041874;28;20466;-36
2021/10/14 11:15:55;;;;;;;12.95;6.63;;;14.40;57.50;;;;;;5040905;28;19905;-36
2021/10/14 11:18:22;;;;;;;37.55;9.32;;;14.30;57.40;;;;;;5041361;28;20029;-39
2021/10/14 11:20:52;;;;;;;13.38;7.68;;;14.30;58.20;;;;;;5041106;28;20033;-37
2021/10/14 11:23:19;;;;;;;15.48;7.97;;;14.30;57.60;;;;;;5041501;28;20160;-36
2021/10/14 11:25:58;;;;;;;12.25;7.40;;;14.40;57.40;;;;;;5041310;28;20053;-38
2021/10/14 11:28:24;;;;;;;18.10;7.88;;;14.40;57.40;;;;;;5037878;28;20098;-39
2021/10/14 11:30:52;;;;;;;16.38;7.88;;;14.50;56.90;;;;;;5037796;28;20137;-36
2021/10/14 11:33:34;;;;;;;29.80;9.70;;;14.60;56.80;;;;;;5038103;28;20267;-38
2021/10/14 11:36:05;;;;;;;12.18;6.90;;;14.60;56.80;;;;;;5037476;28;20037;-36
2021/10/14 11:38:35;;;;;;;42.15;11.02;;;14.60;56.60;;;;;;5037898;28;20040;-39
2021/10/14 11:41:02;;;;;;;18.63;8.10;;;14.60;56.90;;;;;;5038263;28;20395;-37
2021/10/14 11:43:30;;;;;;;19.55;8.57;;;14.60;56.30;;;;;;5038025;28;20033;-39
2021/10/14 11:45:58;;;;;;;11.15;7.45;;;14.50;56.40;;;;;;5037603;28;20120;-36
2021/10/14 11:48:35;;;;;;;17.50;7.40;;;14.50;56.60;;;;;;5037567;28;20037;-36
2021/10/14 11:51:11;;;;;;;22.80;8.18;;;14.50;56.50;;;;;;5037406;28;20081;-36
2021/10/14 11:53:38;;;;;;;10.13;7.35;;;14.50;56.00;;;;;;5038238;28;20025;-36
2021/10/14 11:56:07;;;;;;;14.27;7.32;;;14.60;56.00;;;;;;5036970;28;20115;-39
2021/10/14 11:58:34;;;;;;;16.10;7.85;;;14.70;55.50;;;;;;5038010;28;20029;-37
2021/10/14 12:01:11;;;;;;;15.68;8.00;;;14.80;54.70;;;;;;5037212;28;20022;-40
2021/10/14 12:03:38;;;;;;;21.45;8.40;;;15.00;54.60;;;;;;5037989;28;20163;-35
2021/10/14 12:06:05;;;;;;;15.05;6.97;;;15.00;54.40;;;;;;5037059;28;20021;-36
2021/10/14 12:08:31;;;;;;;9.48;5.93;;;15.10;54.40;;;;;;5037906;28;20037;-37
2021/10/14 12:10:58;;;;;;;18.77;7.63;;;15.30;54.40;;;;;;5037604;28;20096;-36
2021/10/14 12:13:29;;;;;;;10.13;7.43;;;15.40;53.60;;;;;;5036919;28;20511;-38
2021/10/14 12:16:12;;;;;;;58.10;9.63;;;15.60;53.50;;;;;;5037352;28;20033;-38
2021/10/14 12:18:38;;;;;;;10.25;6.82;;;15.70;53.60;;;;;;5037554;28;20059;-36
2021/10/14 12:21:43;;;;;;;15.50;7.35;;;15.80;52.80;;;;;;5037071;28;20299;-39
2021/10/14 12:24:08;;;;;;;16.17;7.50;;;16.00;52.30;;;;;;5037160;28;20043;-39
2021/10/14 12:26:57;;;;;;;30.98;10.10;;;16.10;53.30;;;;;;5036893;28;20413;-36
2021/10/14 12:29:28;;;;;;;34.58;8.48;;;16.30;51.70;;;;;;5036273;28;20038;-35
2021/10/14 12:32:07;;;;;;;16.48;7.72;;;16.40;52.00;;;;;;5036911;28;20036;-36
2021/10/14 12:34:57;;;;;;;32.13;8.43;;;16.50;51.00;;;;;;5036741;28;20024;-36
2021/10/14 12:37:29;;;;;;;36.92;8.13;;;16.60;50.60;;;;;;5035668;28;20030;-34